메인 페이지
METAR-TAF:

METAR-TAF

공항 :

Cobb County Airport (McCollum Field)

애틀란타 / Kennesaw, 조지아, 미국

위도: 34-00-47N, 경도: 084-35-55W, 고도: 317m

현재 날씨관측

예보는 19분 전, 08:35시(UTC)에 발표되었습니다.
남서4kt
온도 17°C
습도 94%
기압 1016 hPa
시정: 16.1km
고도 400ft 상공 구름 보통
고도 4200ft 상공 구름 많음
고도 11000ft 상공 흐림
약한비

METAR: KRYY 100835Z AUTO 23004KT 10SM -RA SCT004 BKN042 OVC110 17/16 A3000 RMK AO2 RAB29 $

시각: 04:54 (08:54 UTC)

예보

예보는 1 시간 21분 전, 07:33시(UTC)에 발표되었습니다.
예보 대상 시간: 10일 08시부터 11일 06시까지 (UTC)
서남서6kt
시정: 10km
고도 400ft 상공 구름 조금
고도 3000ft 상공 구름 보통
고도 10000ft 상공 흐림
시계 내 소나기
10일 0900시부터 (UTC)
남서8kt
시정: 10km
고도 2500ft 상공 구름 많음
고도 8000ft 상공 흐림
시계 내 소나기
10일 1100시부터 (UTC)
서남서6kt
시정: 10km
고도 1500ft 상공 흐림
10일 1800시부터 (UTC)
9kt
시정: 10km
고도 1500ft 상공 구름 많음
시계 내 소나기
10일 2200시부터 (UTC)
서북서8kt
시정: 10km
고도 2000ft 상공 구름 많음
11일 0200시부터 (UTC)
북서4kt
시정: 10km
고도 1500ft 상공 구름 많음

TAF: KRYY 100733Z 1008/1106 25006KT P6SM VCSH FEW004 SCT030 OVC100 FM100900 22008KT P6SM VCSH BKN025 OVC080 FM101100 25006KT P6SM OVC015 FM101800 28009KT P6SM VCSH BKN015 FM102200 30008KT P6SM BKN020 FM110200 31004KT P6SM BKN015

4,000개 이상의 공항 관측 자료 및 예보 (METAR 및 TAF 보고).

지도상에서 검색 가능한 기상관측소가 노란 점과 빨간 점으로 표시되어 있습니다.

기상관측소 명을 보려면 표시 위로 마우스를 이동하세요.

날씨 관측과 예보를 보려면 클릭하세요.

지도 변경 : 확대하려면 엑스 표시가 있는 녹색 버튼, 축소하려면 빼기 표시가 있는 녹색 버튼, 다음 페이지의 지도를 보려면 녹색 화살표를 클릭하세요.


METAR-TAF: